Time;durP1;ratioP1;P1;durP2;ratioP2;P2;SDS_P1;SDS_P2;PMS_P1;PMS_P2;Temp;Humidity;BMP_temperature;BMP_pressure;BME280_temperature;BME280_humidity;BME280_pressure;Samples;Min_cycle;Max_cycle;Signal;HPM_P1;HPM_P2
2022/01/20 00:00:44;;;;;;;15.87;4.00;;;6.50;99.90;;;;;;5035700;28;20162;-68
2022/01/20 00:03:14;;;;;;;14.53;3.60;;;6.40;99.90;;;;;;5035274;28;20173;-68
2022/01/20 00:27:03;;;;;;;10.67;3.83;;;6.00;99.90;;;;;;5035129;28;20244;-68
2022/01/20 00:29:31;;;;;;;16.23;3.57;;;5.90;99.90;;;;;;5035308;28;20188;-70
2022/01/20 00:32:09;;;;;;;13.90;3.30;;;5.90;99.90;;;;;;5034897;28;20247;-69
2022/01/20 00:37:21;;;;;;;18.40;3.37;;;5.70;99.90;;;;;;5035355;28;20174;-68
2022/01/20 00:39:47;;;;;;;13.40;2.73;;;5.70;99.90;;;;;;5033919;28;20174;-68
2022/01/20 00:42:15;;;;;;;10.50;3.00;;;5.70;99.90;;;;;;5035202;28;20277;-68
2022/01/20 00:44:44;;;;;;;10.60;2.87;;;5.70;99.90;;;;;;5034627;28;20181;-68
2022/01/20 00:47:10;;;;;;;14.03;3.03;;;5.60;99.90;;;;;;5034356;28;20264;-68
2022/01/20 00:49:36;;;;;;;11.37;2.67;;;5.60;99.90;;;;;;5034992;28;20170;-68
2022/01/20 00:52:04;;;;;;;17.67;3.10;;;5.50;99.90;;;;;;5034969;28;20178;-69
2022/01/20 00:54:29;;;;;;;8.63;3.03;;;5.60;99.90;;;;;;5034627;28;20174;-69
2022/01/20 00:56:55;;;;;;;14.20;3.50;;;5.60;99.90;;;;;;5034529;28;20261;-68
2022/01/20 00:59:21;;;;;;;10.20;3.20;;;5.60;99.90;;;;;;5034523;28;20170;-68
2022/01/20 01:01:47;;;;;;;15.53;3.67;;;5.60;99.90;;;;;;5034078;28;20660;-69
2022/01/20 01:04:13;;;;;;;12.00;3.33;;;5.50;99.90;;;;;;5034471;28;20178;-69
2022/01/20 01:09:20;;;;;;;15.23;3.60;;;5.40;99.90;;;;;;5034914;28;20169;-69
2022/01/20 01:11:47;;;;;;;17.07;3.47;;;5.40;99.90;;;;;;5034458;28;20180;-69
2022/01/20 01:14:15;;;;;;;18.03;4.27;;;5.40;99.90;;;;;;5033892;28;20249;-68
2022/01/20 01:24:35;;;;;;;21.30;4.40;;;5.50;99.90;;;;;;5033890;28;20213;-68
2022/01/20 01:27:01;;;;;;;21.73;4.50;;;5.40;99.90;;;;;;5033639;28;20305;-68
2022/01/20 01:32:18;;;;;;;18.27;4.13;;;5.60;99.90;;;;;;5031764;28;20182;-68
2022/01/20 01:34:51;;;;;;;23.23;4.27;;;5.70;99.90;;;;;;5032042;28;20177;-68
2022/01/20 01:40:05;;;;;;;12.37;3.77;;;5.90;99.90;;;;;;5032275;28;20395;-69
2022/01/20 01:42:39;;;;;;;17.53;3.63;;;5.90;99.90;;;;;;5031798;28;20182;-69
2022/01/20 01:45:17;;;;;;;12.60;3.67;;;5.90;99.90;;;;;;5031097;28;20218;-68
2022/01/20 01:47:45;;;;;;;20.90;3.93;;;5.90;99.90;;;;;;5031915;28;20174;-69
2022/01/20 01:50:10;;;;;;;20.93;4.10;;;6.00;99.90;;;;;;5031840;28;20186;-69
2022/01/20 01:52:36;;;;;;;20.80;4.20;;;6.00;99.90;;;;;;5031742;28;20174;-69
2022/01/20 01:55:03;;;;;;;15.53;4.13;;;6.10;99.90;;;;;;5031465;28;20711;-68
2022/01/20 01:57:29;;;;;;;15.20;3.80;;;6.10;99.90;;;;;;5031599;28;20186;-68
2022/01/20 01:59:55;;;;;;;20.17;4.17;;;6.20;99.90;;;;;;5030924;28;20173;-69
2022/01/20 02:02:22;;;;;;;14.50;3.87;;;6.20;99.90;;;;;;5031641;28;20188;-69
2022/01/20 02:04:49;;;;;;;21.73;4.60;;;6.20;99.90;;;;;;5031223;28;20689;-69
2022/01/20 02:20:40;;;;;;;20.73;4.17;;;6.50;99.90;;;;;;5031235;28;20244;-69
2022/01/20 02:23:06;;;;;;;14.43;3.80;;;6.50;99.90;;;;;;5031137;28;20186;-68
2022/01/20 02:25:35;;;;;;;15.67;4.10;;;6.50;99.90;;;;;;5030552;28;20259;-70
2022/01/20 02:28:06;;;;;;;13.17;3.70;;;6.40;99.90;;;;;;5030818;28;20185;-69
2022/01/20 02:30:32;;;;;;;13.53;3.83;;;6.50;99.90;;;;;;5031146;28;20260;-68
2022/01/20 02:33:19;;;;;;;11.07;2.90;;;6.50;99.90;;;;;;5031191;28;20169;-69
2022/01/20 02:35:47;;;;;;;14.90;3.50;;;6.40;99.90;;;;;;5030854;28;20194;-69
2022/01/20 02:38:20;;;;;;;10.53;3.60;;;6.30;99.90;;;;;;5031191;28;20186;-69
2022/01/20 02:46:14;;;;;;;12.23;2.73;;;6.30;99.90;;;;;;5034892;28;20220;-69
2022/01/20 02:48:40;;;;;;;13.80;2.90;;;6.20;99.90;;;;;;5035670;28;20178;-69
2022/01/20 02:51:05;;;;;;;11.50;2.70;;;6.10;99.90;;;;;;5037176;28;20205;-69
2022/01/20 02:53:31;;;;;;;10.47;3.10;;;6.10;99.90;;;;;;5037006;28;20543;-68
2022/01/20 02:55:57;;;;;;;10.40;2.93;;;6.10;99.90;;;;;;5036959;28;20231;-68
2022/01/20 02:58:22;;;;;;;12.73;2.77;;;6.00;99.90;;;;;;5036839;28;20173;-68
2022/01/20 03:00:48;;;;;;;12.40;2.97;;;5.90;99.90;;;;;;5036861;28;20573;-68
2022/01/20 03:03:14;;;;;;;16.47;3.43;;;5.80;99.90;;;;;;5036973;28;20181;-68
2022/01/20 03:05:39;;;;;;;7.97;2.97;;;5.70;99.90;;;;;;5036576;28;20296;-68
2022/01/20 03:08:05;;;;;;;11.67;2.70;;;5.60;99.90;;;;;;5036863;28;20265;-68
2022/01/20 03:10:31;;;;;;;9.07;2.10;;;5.60;99.90;;;;;;5036594;28;20542;-68
2022/01/20 03:12:57;;;;;;;11.33;2.53;;;5.70;99.90;;;;;;5036334;28;20165;-68
2022/01/20 03:15:23;;;;;;;6.70;2.20;;;5.80;99.90;;;;;;5036438;28;20717;-68
2022/01/20 03:17:49;;;;;;;6.60;2.30;;;5.80;99.90;;;;;;5036735;28;20283;-68
2022/01/20 03:20:15;;;;;;;10.63;2.50;;;5.90;99.90;;;;;;5036663;28;20166;-68
2022/01/20 03:22:40;;;;;;;6.30;2.10;;;6.00;99.90;;;;;;5036481;28;20181;-68
2022/01/20 03:25:06;;;;;;;9.87;2.30;;;6.00;99.90;;;;;;5035916;28;20256;-68
2022/01/20 03:27:32;;;;;;;9.87;2.07;;;6.00;99.90;;;;;;5035884;28;20317;-68
2022/01/20 03:29:58;;;;;;;5.23;1.80;;;6.10;99.90;;;;;;5036554;28;20257;-69
2022/01/20 03:32:23;;;;;;;5.83;2.27;;;6.20;99.90;;;;;;5036290;28;20603;-69
2022/01/20 03:34:49;;;;;;;9.37;1.80;;;6.20;99.90;;;;;;5036259;28;20177;-68
2022/01/20 03:37:15;;;;;;;4.27;2.03;;;6.20;99.90;;;;;;5036318;28;20184;-69
2022/01/20 03:39:41;;;;;;;7.50;2.17;;;6.20;99.90;;;;;;5034700;28;20256;-69
2022/01/20 03:42:06;;;;;;;7.63;2.90;;;6.10;99.90;;;;;;5035702;28;20316;-69
2022/01/20 03:44:32;;;;;;;11.90;3.53;;;6.00;99.90;;;;;;5034880;28;20185;-68
2022/01/20 03:47:00;;;;;;;15.37;3.60;;;5.90;99.90;;;;;;5035767;28;20224;-69
2022/01/20 03:49:33;;;;;;;7.40;3.00;;;5.90;99.90;;;;;;5036162;28;20630;-69
2022/01/20 03:51:59;;;;;;;7.13;3.17;;;5.90;99.90;;;;;;5035856;28;20174;-69
2022/01/20 03:54:25;;;;;;;5.07;2.57;;;6.00;99.90;;;;;;5034543;28;20557;-69
2022/01/20 03:56:51;;;;;;;4.93;2.90;;;6.00;99.90;;;;;;5035330;28;20608;-69
2022/01/20 03:59:16;;;;;;;7.00;3.03;;;6.00;99.90;;;;;;5035968;28;20268;-69
2022/01/20 04:01:42;;;;;;;4.87;2.93;;;6.00;99.90;;;;;;5035764;28;20174;-68
2022/01/20 04:04:08;;;;;;;3.83;2.27;;;6.00;99.90;;;;;;5035754;28;20260;-68
2022/01/20 04:06:34;;;;;;;13.80;2.77;;;5.90;99.90;;;;;;5035357;28;20245;-69
2022/01/20 04:08:59;;;;;;;7.40;2.70;;;6.00;99.90;;;;;;5035502;28;20169;-69
2022/01/20 04:11:27;;;;;;;6.97;2.40;;;5.90;99.90;;;;;;5035220;28;20182;-68
2022/01/20 04:13:53;;;;;;;3.37;2.40;;;6.00;99.90;;;;;;5035413;28;20276;-68
2022/01/20 04:16:24;;;;;;;9.53;2.83;;;6.00;99.90;;;;;;5035310;28;20174;-68
2022/01/20 04:18:56;;;;;;;7.80;2.93;;;6.00;99.90;;;;;;5035578;28;20248;-68
2022/01/20 04:21:26;;;;;;;6.23;2.53;;;6.00;99.90;;;;;;5034836;28;20178;-69
2022/01/20 04:23:52;;;;;;;6.83;2.40;;;6.10;99.90;;;;;;5034522;28;20166;-68
2022/01/20 04:26:18;;;;;;;7.03;2.67;;;6.10;99.90;;;;;;5034809;28;20276;-69
2022/01/20 04:28:45;;;;;;;4.93;2.17;;;6.10;99.90;;;;;;5035616;28;20206;-68
2022/01/20 04:31:11;;;;;;;6.67;2.47;;;6.10;99.90;;;;;;5035118;28;20174;-69
2022/01/20 04:33:37;;;;;;;5.67;2.83;;;6.10;99.90;;;;;;5035151;28;20181;-68
2022/01/20 04:36:04;;;;;;;11.20;2.73;;;6.20;99.90;;;;;;5034552;28;20170;-69
2022/01/20 04:38:30;;;;;;;7.80;2.60;;;6.20;99.90;;;;;;5034729;28;20196;-69
2022/01/20 04:40:55;;;;;;;9.07;2.57;;;6.20;99.90;;;;;;5033374;28;20653;-68
2022/01/20 04:43:21;;;;;;;10.27;2.47;;;6.10;99.90;;;;;;5034917;28;20184;-69
2022/01/20 04:45:55;;;;;;;10.83;2.60;;;6.10;99.90;;;;;;5034604;28;20236;-68
2022/01/20 04:48:29;;;;;;;9.80;2.63;;;6.10;99.90;;;;;;5034782;28;20178;-69
2022/01/20 04:59:07;;;;;;;9.40;3.07;;;6.00;99.90;;;;;;5034828;28;20177;-68
2022/01/20 05:01:33;;;;;;;8.80;3.10;;;6.00;99.90;;;;;;5034388;28;20602;-70
2022/01/20 05:04:01;;;;;;;9.37;3.63;;;6.00;99.90;;;;;;5034528;28;20594;-68
2022/01/20 05:06:26;;;;;;;12.50;3.60;;;5.90;99.90;;;;;;5034004;28;20241;-69
2022/01/20 05:08:52;;;;;;;10.00;3.87;;;5.80;99.90;;;;;;5034052;28;20644;-69
2022/01/20 05:11:19;;;;;;;11.87;4.03;;;5.80;99.90;;;;;;5033936;28;20193;-69
2022/01/20 05:13:45;;;;;;;12.50;3.50;;;5.70;99.90;;;;;;5033884;28;20205;-69
2022/01/20 05:16:11;;;;;;;17.37;3.97;;;5.60;99.90;;;;;;5034239;28;20308;-69
2022/01/20 05:18:36;;;;;;;15.30;4.00;;;5.60;99.90;;;;;;5034603;28;20193;-69
2022/01/20 05:21:02;;;;;;;11.53;3.97;;;5.50;99.90;;;;;;5033693;28;20681;-69
2022/01/20 05:23:28;;;;;;;9.83;3.60;;;5.50;99.90;;;;;;5033462;28;20209;-68
2022/01/20 05:25:53;;;;;;;11.57;3.33;;;5.40;99.90;;;;;;5033549;28;20234;-69
2022/01/20 05:28:19;;;;;;;10.40;3.47;;;5.50;99.90;;;;;;5034027;28;20228;-69
2022/01/20 05:30:45;;;;;;;12.63;3.53;;;5.50;99.90;;;;;;5033910;28;20177;-70
2022/01/20 05:33:11;;;;;;;10.40;3.40;;;5.50;99.90;;;;;;5033529;28;20173;-69
2022/01/20 05:35:37;;;;;;;15.00;3.47;;;5.60;99.90;;;;;;5033385;28;20173;-68
2022/01/20 05:38:03;;;;;;;14.50;3.73;;;5.50;99.90;;;;;;5033561;28;20274;-68
2022/01/20 05:40:28;;;;;;;15.27;4.33;;;5.50;99.90;;;;;;5033303;28;20697;-69
2022/01/20 05:42:54;;;;;;;14.50;3.57;;;5.60;99.90;;;;;;5033161;28;20227;-69
2022/01/20 05:45:20;;;;;;;12.53;3.90;;;5.60;99.90;;;;;;5032829;28;20209;-69
2022/01/20 05:47:48;;;;;;;9.23;3.80;;;5.70;99.90;;;;;;5033432;28;20178;-69
2022/01/20 05:50:17;;;;;;;12.87;3.93;;;5.70;99.90;;;;;;5032966;28;20230;-69
2022/01/20 05:52:43;;;;;;;12.93;3.57;;;5.80;99.90;;;;;;5032650;28;20522;-69
2022/01/20 05:55:14;;;;;;;11.83;3.20;;;5.90;99.90;;;;;;5032575;28;20255;-69
2022/01/20 05:57:40;;;;;;;14.53;3.63;;;5.80;99.90;;;;;;5033289;28;20181;-69
2022/01/20 06:00:09;;;;;;;12.83;3.50;;;5.80;99.90;;;;;;5033088;28;20368;-68
2022/01/20 06:03:36;;;;;;;17.73;3.53;;;5.70;99.90;;;;;;5032575;28;20173;-70
2022/01/20 06:05:24;;;;;;;12.27;4.30;;;5.80;99.90;;;;;;5032340;28;20213;-69
2022/01/20 06:07:50;;;;;;;17.37;4.50;;;5.70;99.90;;;;;;5032917;28;20174;-70
2022/01/20 06:10:16;;;;;;;16.57;3.83;;;5.90;99.90;;;;;;5032784;28;20178;-68
2022/01/20 06:12:41;;;;;;;11.07;3.90;;;5.90;99.90;;;;;;5032637;28;20209;-70
2022/01/20 06:15:07;;;;;;;20.47;4.00;;;5.90;99.90;;;;;;5031400;28;20202;-69
2022/01/20 06:17:36;;;;;;;21.60;3.43;;;5.90;99.90;;;;;;5031999;28;20178;-68
2022/01/20 06:20:02;;;;;;;14.57;3.37;;;5.90;99.90;;;;;;5032193;28;20189;-69
2022/01/20 06:22:28;;;;;;;13.30;3.37;;;6.00;99.90;;;;;;5032207;28;20170;-69
2022/01/20 06:24:53;;;;;;;11.53;3.17;;;6.00;99.90;;;;;;5031912;28;20216;-69
2022/01/20 06:27:19;;;;;;;14.37;3.30;;;6.00;99.90;;;;;;5032287;28;20737;-69
2022/01/20 06:29:46;;;;;;;17.10;3.37;;;6.00;99.90;;;;;;5032360;28;20258;-70
2022/01/20 06:32:11;;;;;;;15.53;3.33;;;6.00;99.90;;;;;;5032148;28;20182;-69
2022/01/20 06:34:37;;;;;;;9.23;2.93;;;6.00;99.90;;;;;;5031841;28;20636;-69
2022/01/20 06:37:03;;;;;;;11.33;2.53;;;6.00;99.90;;;;;;5031892;28;20205;-68
2022/01/20 06:39:28;;;;;;;13.03;2.63;;;6.00;99.90;;;;;;5032526;28;20601;-69
2022/01/20 06:41:54;;;;;;;13.53;3.57;;;6.00;99.90;;;;;;5032054;28;20235;-69
2022/01/20 06:44:21;;;;;;;9.67;2.60;;;6.00;99.90;;;;;;5031708;28;20517;-69
2022/01/20 06:46:48;;;;;;;8.87;2.30;;;6.10;99.90;;;;;;5031283;28;20355;-69
2022/01/20 06:49:14;;;;;;;9.87;2.80;;;6.10;99.90;;;;;;5031800;28;20181;-69
2022/01/20 06:51:40;;;;;;;8.20;2.63;;;6.10;99.90;;;;;;5031765;28;20182;-69
2022/01/20 06:54:06;;;;;;;7.77;2.37;;;6.10;99.90;;;;;;5032132;28;20185;-70
2022/01/20 06:56:31;;;;;;;10.37;2.60;;;6.20;99.90;;;;;;5031259;28;20239;-69
2022/01/20 06:58:58;;;;;;;10.07;2.30;;;6.20;99.90;;;;;;5031564;28;20265;-69
2022/01/20 07:01:24;;;;;;;9.37;2.40;;;6.20;99.90;;;;;;5031567;28;20174;-69
2022/01/20 07:03:49;;;;;;;11.37;2.17;;;6.20;99.90;;;;;;5031115;28;20272;-69
2022/01/20 07:06:15;;;;;;;10.07;2.60;;;6.20;99.90;;;;;;5030852;28;20573;-69
2022/01/20 07:08:40;;;;;;;13.33;2.57;;;6.30;99.90;;;;;;5032204;28;20280;-69
2022/01/20 07:11:06;;;;;;;13.97;2.83;;;6.30;99.90;;;;;;5031223;28;20188;-69
2022/01/20 07:13:32;;;;;;;12.30;2.43;;;6.20;99.90;;;;;;5032063;28;20644;-69
2022/01/20 07:15:57;;;;;;;7.80;2.30;;;6.20;99.90;;;;;;5031021;28;20692;-69
2022/01/20 07:18:23;;;;;;;9.87;2.50;;;6.20;99.90;;;;;;5031635;28;20537;-70
2022/01/20 07:20:48;;;;;;;14.90;2.80;;;6.10;99.90;;;;;;5031077;28;20530;-68
2022/01/20 07:23:14;;;;;;;9.83;3.17;;;6.10;99.90;;;;;;5031107;28;20173;-69
2022/01/20 07:25:39;;;;;;;12.53;2.83;;;6.10;99.90;;;;;;5031197;28;20645;-69
2022/01/20 07:28:05;;;;;;;10.20;2.73;;;6.00;99.90;;;;;;5033030;28;20312;-69
2022/01/20 07:30:31;;;;;;;10.67;2.30;;;6.10;99.90;;;;;;5034549;28;20178;-68
2022/01/20 07:32:57;;;;;;;13.97;2.60;;;6.10;99.90;;;;;;5034721;28;20170;-68
2022/01/20 07:35:23;;;;;;;8.93;2.17;;;6.10;99.90;;;;;;5034675;28;20178;-69
2022/01/20 07:37:48;;;;;;;8.67;2.43;;;6.10;99.90;;;;;;5035420;28;20224;-69
2022/01/20 07:40:14;;;;;;;7.73;2.00;;;6.00;99.90;;;;;;5034911;28;20181;-70
2022/01/20 07:42:40;;;;;;;8.00;1.90;;;6.00;99.90;;;;;;5034582;28;20170;-68
2022/01/20 07:45:06;;;;;;;10.60;2.77;;;6.10;99.90;;;;;;5034691;28;20260;-69
2022/01/20 07:47:32;;;;;;;11.30;2.27;;;6.10;99.90;;;;;;5034371;28;20185;-69
2022/01/20 07:49:57;;;;;;;5.70;2.50;;;6.10;99.90;;;;;;5033967;28;20190;-70
2022/01/20 07:52:23;;;;;;;10.57;3.10;;;6.20;99.90;;;;;;5033951;28;20169;-70
2022/01/20 07:54:52;;;;;;;7.07;2.20;;;6.30;99.90;;;;;;5034697;28;20174;-69
2022/01/20 07:57:18;;;;;;;9.17;3.10;;;6.30;99.90;;;;;;5035048;28;20231;-70
2022/01/20 07:59:44;;;;;;;15.13;2.40;;;6.30;99.90;;;;;;5034830;28;20185;-69
2022/01/20 08:02:09;;;;;;;7.10;2.13;;;6.30;99.90;;;;;;5034442;28;20178;-69
2022/01/20 08:04:38;;;;;;;12.80;2.60;;;6.30;99.90;;;;;;5034608;28;20232;-69
2022/01/20 08:07:03;;;;;;;11.83;3.03;;;6.40;99.90;;;;;;5034455;28;20214;-69
2022/01/20 08:09:29;;;;;;;13.67;3.03;;;6.50;99.90;;;;;;5032800;28;20174;-68
2022/01/20 08:11:54;;;;;;;11.37;3.00;;;6.40;99.90;;;;;;5034893;28;20556;-69
2022/01/20 08:14:20;;;;;;;12.43;3.00;;;6.40;99.90;;;;;;5034230;28;20198;-69
2022/01/20 08:16:46;;;;;;;11.00;3.23;;;6.40;99.90;;;;;;5033664;28;20169;-69
2022/01/20 08:19:12;;;;;;;10.73;2.70;;;6.40;99.90;;;;;;5034939;28;20181;-68
2022/01/20 08:21:37;;;;;;;14.73;2.93;;;6.40;99.90;;;;;;5034217;28;20764;-69
2022/01/20 08:24:05;;;;;;;10.80;2.80;;;6.50;99.90;;;;;;5034608;28;20181;-69
2022/01/20 08:26:31;;;;;;;12.77;3.10;;;6.40;99.90;;;;;;5032790;28;20657;-68
2022/01/20 08:29:00;;;;;;;12.40;2.80;;;6.40;99.90;;;;;;5034551;28;20245;-68
2022/01/20 08:31:25;;;;;;;12.23;2.97;;;6.50;99.90;;;;;;5033948;28;20236;-68
2022/01/20 08:33:51;;;;;;;13.50;3.13;;;6.70;99.90;;;;;;5034088;28;20170;-68
2022/01/20 08:36:16;;;;;;;11.73;3.33;;;6.80;99.90;;;;;;5034488;28;20200;-69
2022/01/20 08:38:42;;;;;;;15.30;3.20;;;6.90;99.90;;;;;;5034435;28;20614;-69
2022/01/20 08:41:11;;;;;;;13.57;3.03;;;7.00;99.90;;;;;;5033704;28;20170;-69
2022/01/20 08:43:38;;;;;;;13.07;3.67;;;7.10;99.90;;;;;;5034023;28;20197;-68
2022/01/20 08:46:07;;;;;;;14.33;3.70;;;7.30;99.90;;;;;;5033046;28;20744;-69
2022/01/20 08:48:37;;;;;;;16.83;3.83;;;7.50;99.90;;;;;;5034132;28;20687;-69
2022/01/20 08:51:05;;;;;;;17.87;3.70;;;8.00;99.90;;;;;;5032840;28;20541;-69
2022/01/20 08:53:31;;;;;;;10.13;3.57;;;8.30;99.90;;;;;;5034018;28;20166;-70
2022/01/20 08:55:58;;;;;;;11.77;3.27;;;8.40;99.90;;;;;;5034302;28;20687;-70
2022/01/20 08:58:24;;;;;;;11.97;3.27;;;8.30;99.90;;;;;;5033793;28;20645;-70
2022/01/20 09:00:50;;;;;;;15.07;3.13;;;8.30;99.90;;;;;;5033390;28;20243;-70
2022/01/20 09:03:16;;;;;;;11.50;3.40;;;8.00;99.90;;;;;;5033928;28;20235;-69
2022/01/20 09:05:42;;;;;;;12.07;3.37;;;8.00;99.90;;;;;;5033096;28;20216;-70
2022/01/20 09:08:08;;;;;;;13.83;2.77;;;8.10;99.90;;;;;;5033937;28;20170;-70
2022/01/20 09:10:39;;;;;;;11.33;3.07;;;8.80;99.90;;;;;;5033493;28;20695;-70
2022/01/20 09:15:50;;;;;;;11.00;2.90;;;10.80;99.90;;;;;;5033806;28;20235;-71
2022/01/20 09:18:18;;;;;;;9.37;3.20;;;11.40;99.90;;;;;;5033920;28;20318;-71
2022/01/20 09:20:44;;;;;;;13.23;2.90;;;12.40;99.90;;;;;;5033717;28;20182;-70
2022/01/20 09:23:13;;;;;;;10.43;3.07;;;12.30;99.90;;;;;;5033034;28;20174;-71
2022/01/20 09:25:42;;;;;;;11.33;3.30;;;12.40;99.60;;;;;;5033002;28;20214;-70
2022/01/20 09:28:08;;;;;;;11.10;3.13;;;12.10;99.40;;;;;;5033079;28;20301;-69
2022/01/20 09:30:36;;;;;;;13.17;3.30;;;11.60;99.90;;;;;;5033373;28;20204;-70
2022/01/20 09:35:38;;;;;;;14.47;3.43;;;10.70;99.90;;;;;;5032893;28;20623;-69
2022/01/20 09:38:08;;;;;;;14.40;3.63;;;10.00;99.90;;;;;;5033597;28;20380;-69
2022/01/20 09:40:35;;;;;;;17.70;3.47;;;9.70;99.90;;;;;;5033178;28;20243;-68
2022/01/20 09:43:01;;;;;;;10.30;3.43;;;9.40;99.90;;;;;;5032921;28;20220;-69
2022/01/20 09:45:27;;;;;;;15.33;3.87;;;9.10;99.90;;;;;;5033008;28;20202;-69
2022/01/20 09:47:53;;;;;;;16.37;3.33;;;8.90;99.90;;;;;;5032418;28;20181;-69
2022/01/20 09:50:24;;;;;;;13.20;3.87;;;8.70;99.90;;;;;;5033443;28;20170;-68
2022/01/20 09:52:51;;;;;;;16.77;4.07;;;8.70;99.90;;;;;;5031975;28;20166;-69
2022/01/20 09:55:18;;;;;;;17.97;3.73;;;8.70;99.90;;;;;;5032776;28;20200;-70
2022/01/20 09:57:45;;;;;;;19.70;3.63;;;8.70;99.90;;;;;;5032541;28;20177;-68
2022/01/20 10:00:13;;;;;;;9.73;3.33;;;8.60;99.90;;;;;;5033226;28;20657;-69
2022/01/20 10:03:01;;;;;;;11.33;2.90;;;8.60;99.90;;;;;;5032781;28;20189;-69
2022/01/20 10:05:34;;;;;;;13.10;3.27;;;8.50;99.90;;;;;;5032557;28;20205;-69
2022/01/20 10:08:03;;;;;;;18.57;4.33;;;8.40;99.90;;;;;;5032607;28;20166;-69
2022/01/20 10:10:53;;;;;;;14.17;3.80;;;8.40;99.90;;;;;;5032773;28;20265;-69
2022/01/20 10:13:26;;;;;;;16.83;3.77;;;8.40;99.90;;;;;;5031930;28;20176;-69
2022/01/20 10:15:55;;;;;;;16.03;3.60;;;8.40;99.90;;;;;;5032383;28;20227;-69
2022/01/20 10:18:21;;;;;;;17.57;3.90;;;8.30;99.90;;;;;;5032357;28;20170;-69
2022/01/20 10:21:03;;;;;;;15.20;3.60;;;8.20;99.90;;;;;;5032812;28;20526;-68
2022/01/20 10:23:47;;;;;;;15.47;3.97;;;8.10;99.90;;;;;;5032095;28;20638;-70
2022/01/20 10:26:18;;;;;;;11.83;3.80;;;8.10;99.90;;;;;;5031634;28;20229;-70
2022/01/20 10:28:51;;;;;;;11.07;3.63;;;8.40;99.90;;;;;;5031209;28;20174;-70
2022/01/20 10:31:21;;;;;;;9.53;3.50;;;9.30;99.90;;;;;;5031478;28;20484;-70
2022/01/20 10:33:49;;;;;;;14.60;4.80;;;10.30;99.90;;;;;;5030862;28;20193;-70
2022/01/20 10:36:15;;;;;;;11.87;4.60;;;11.50;99.90;;;;;;5032344;28;20186;-70
2022/01/20 10:38:51;;;;;;;8.77;3.97;;;12.80;97.50;;;;;;5031887;28;20178;-71
2022/01/20 10:41:30;;;;;;;9.57;3.23;;;13.70;94.50;;;;;;5031760;28;20173;-71
2022/01/20 10:44:14;;;;;;;6.03;2.60;;;13.40;1.00;;;;;;5031948;28;20267;-70
2022/01/20 10:46:45;;;;;;;7.50;2.67;;;13.20;1.00;;;;;;5032077;28;20259;-70
2022/01/20 10:49:10;;;;;;;8.37;3.30;;;13.30;1.00;;;;;;5032660;28;20176;-70
2022/01/20 10:51:39;;;;;;;9.33;3.10;;;13.50;1.00;;;;;;5032292;28;20257;-69
2022/01/20 10:54:13;;;;;;;6.70;2.60;;;13.40;1.00;;;;;;5031177;28;20293;-71
2022/01/20 10:56:54;;;;;;;8.00;2.53;;;13.10;1.00;;;;;;5031733;28;20201;-69
2022/01/20 10:59:21;;;;;;;10.13;2.83;;;12.80;1.00;;;;;;5032072;28;20669;-70
2022/01/20 11:02:08;;;;;;;9.10;2.60;;;12.40;1.00;;;;;;5031989;28;20177;-69
2022/01/20 11:04:39;;;;;;;8.57;2.57;;;11.40;1.00;;;;;;5035857;28;20178;-69
2022/01/20 11:07:07;;;;;;;13.93;2.90;;;10.90;1.00;;;;;;5036095;28;20217;-69
2022/01/20 11:09:37;;;;;;;11.63;2.80;;;10.40;99.90;;;;;;5036191;28;20166;-69
2022/01/20 11:12:04;;;;;;;8.83;2.70;;;10.20;97.00;;;;;;5035060;28;20177;-69
2022/01/20 11:14:31;;;;;;;14.30;3.30;;;9.80;99.20;;;;;;5036096;28;20244;-69
2022/01/20 11:16:58;;;;;;;7.83;2.83;;;9.80;99.90;;;;;;5036102;28;20170;-69
2022/01/20 11:19:25;;;;;;;8.63;2.77;;;9.50;99.90;;;;;;5035682;28;20170;-70
2022/01/20 11:21:51;;;;;;;12.57;3.23;;;9.20;99.90;;;;;;5035796;28;20192;-69
2022/01/20 11:24:20;;;;;;;5.90;2.13;;;9.20;99.90;;;;;;5034940;28;20166;-69
2022/01/20 11:27:05;;;;;;;6.23;2.23;;;9.20;99.90;;;;;;5034947;28;20595;-69
2022/01/20 11:29:48;;;;;;;12.53;2.83;;;9.50;99.90;;;;;;5035952;28;20181;-69
2022/01/20 11:32:21;;;;;;;8.90;2.93;;;9.90;99.90;;;;;;5035452;28;20192;-69
2022/01/20 11:35:08;;;;;;;6.60;2.60;;;10.20;99.70;;;;;;5035212;28;20166;-69
2022/01/20 11:37:54;;;;;;;13.13;4.97;;;10.00;99.90;;;;;;5035054;28;20602;-69
2022/01/20 11:40:23;;;;;;;7.63;2.43;;;9.80;99.90;;;;;;5035378;28;20221;-70
2022/01/20 11:43:04;;;;;;;11.87;4.63;;;9.50;99.90;;;;;;5035967;28;20166;-70
2022/01/20 11:45:36;;;;;;;9.47;2.37;;;9.20;99.90;;;;;;5034880;28;20237;-69
2022/01/20 11:48:20;;;;;;;10.00;2.43;;;8.80;99.90;;;;;;5034529;28;20182;-70
2022/01/20 11:50:47;;;;;;;9.43;2.60;;;8.40;99.90;;;;;;5034757;28;20170;-70
2022/01/20 11:53:20;;;;;;;7.37;2.17;;;8.20;99.90;;;;;;5034848;28;20185;-70
2022/01/20 11:55:50;;;;;;;10.20;3.47;;;7.90;99.90;;;;;;5034873;28;20597;-70
2022/01/20 11:58:19;;;;;;;7.17;2.80;;;8.00;99.90;;;;;;5033990;28;20529;-69
2022/01/20 12:01:09;;;;;;;13.20;2.70;;;8.20;99.90;;;;;;5034884;28;20181;-69
2022/01/20 12:03:37;;;;;;;7.63;2.70;;;8.20;99.90;;;;;;5035365;28;20232;-69
2022/01/20 12:06:13;;;;;;;7.80;2.40;;;8.50;99.90;;;;;;5034365;28;20697;-69
2022/01/20 12:08:53;;;;;;;9.77;2.97;;;8.60;99.90;;;;;;5034648;28;20185;-70
2022/01/20 12:11:19;;;;;;;15.20;2.90;;;8.90;99.90;;;;;;5034975;28;20169;-70
2022/01/20 12:13:46;;;;;;;6.77;2.30;;;8.80;99.90;;;;;;5034429;28;20186;-69
2022/01/20 12:16:18;;;;;;;8.00;2.53;;;9.00;99.90;;;;;;5034048;28;20181;-69
2022/01/20 12:18:52;;;;;;;6.53;2.33;;;9.50;99.90;;;;;;5035020;28;20219;-70
2022/01/20 12:21:18;;;;;;;7.20;2.43;;;9.90;99.90;;;;;;5034153;28;20271;-70
2022/01/20 12:23:46;;;;;;;11.73;2.53;;;10.70;99.20;;;;;;5033785;28;20205;-70
2022/01/20 12:26:12;;;;;;;6.80;2.53;;;11.50;99.90;;;;;;5034148;28;20299;-71
2022/01/20 12:28:37;;;;;;;11.20;2.97;;;11.40;1.00;;;;;;5034673;28;20166;-70
2022/01/20 12:31:06;;;;;;;8.70;2.33;;;11.00;1.00;;;;;;5033991;28;20383;-71
2022/01/20 12:33:33;;;;;;;8.90;2.50;;;10.40;99.90;;;;;;5034406;28;20201;-70
2022/01/20 12:36:03;;;;;;;9.77;2.43;;;9.80;99.90;;;;;;5034014;28;20173;-69
2022/01/20 12:38:39;;;;;;;7.47;2.13;;;9.30;99.90;;;;;;5034487;28;20220;-70
2022/01/20 12:41:17;;;;;;;5.73;2.13;;;8.60;99.90;;;;;;5033985;28;20235;-69
2022/01/20 12:43:54;;;;;;;5.60;2.10;;;8.10;99.90;;;;;;5034590;28;20324;-69
2022/01/20 12:46:25;;;;;;;10.07;3.07;;;7.90;99.90;;;;;;5033683;28;20248;-69
2022/01/20 12:48:58;;;;;;;6.30;2.53;;;7.50;99.90;;;;;;5034293;28;20644;-68
2022/01/20 12:51:45;;;;;;;6.70;2.30;;;7.40;99.90;;;;;;5033221;28;20166;-68
2022/01/20 12:54:27;;;;;;;11.87;2.37;;;7.40;99.90;;;;;;5033898;28;20169;-68
2022/01/20 12:56:58;;;;;;;7.13;2.20;;;7.40;99.90;;;;;;5034344;28;20209;-68
2022/01/20 12:59:28;;;;;;;8.33;2.83;;;7.40;99.90;;;;;;5033844;28;20523;-70
2022/01/20 13:01:55;;;;;;;9.60;2.10;;;7.50;99.90;;;;;;5034170;28;20185;-69
2022/01/20 13:04:24;;;;;;;7.33;2.33;;;7.50;99.90;;;;;;5033630;28;20296;-69
2022/01/20 13:06:55;;;;;;;9.60;2.63;;;7.50;99.90;;;;;;5033169;28;20213;-68
2022/01/20 13:09:24;;;;;;;8.30;2.83;;;7.50;99.90;;;;;;5033964;28;20177;-69
2022/01/20 13:11:57;;;;;;;7.20;2.47;;;7.60;99.90;;;;;;5033829;28;20255;-69
2022/01/20 13:14:52;;;;;;;8.00;2.57;;;7.50;99.90;;;;;;5033856;28;20177;-69
2022/01/20 13:17:30;;;;;;;15.37;3.03;;;7.40;99.90;;;;;;5050751;28;20177;-68
2022/01/20 13:19:58;;;;;;;10.67;2.80;;;7.40;99.90;;;;;;5051611;28;20161;-68
2022/01/20 13:22:32;;;;;;;9.63;2.80;;;7.30;99.90;;;;;;5051073;28;20192;-68
2022/01/20 13:25:08;;;;;;;8.30;2.40;;;7.30;99.90;;;;;;5051445;28;20170;-68
2022/01/20 13:27:35;;;;;;;13.40;3.60;;;7.50;99.90;;;;;;5050842;28;20762;-69
2022/01/20 13:30:01;;;;;;;6.50;2.33;;;7.80;99.90;;;;;;5050910;28;20173;-69
2022/01/20 13:32:26;;;;;;;7.27;2.07;;;8.00;99.90;;;;;;5050895;28;20614;-70
2022/01/20 13:34:57;;;;;;;12.10;2.47;;;8.00;99.90;;;;;;5050443;28;20185;-67
2022/01/20 13:37:23;;;;;;;8.97;2.57;;;8.00;99.90;;;;;;5051237;28;20239;-69
2022/01/20 13:39:49;;;;;;;11.17;2.40;;;8.10;99.90;;;;;;5051209;28;20175;-69
2022/01/20 13:45:13;;;;;;;10.30;2.40;;;8.10;99.90;;;;;;5050702;28;20196;-69
2022/01/20 13:47:53;;;;;;;12.60;2.40;;;7.90;99.90;;;;;;5050367;28;20184;-69
2022/01/20 13:50:53;;;;;;;7.50;2.13;;;7.80;99.90;;;;;;5033283;28;20259;-69
2022/01/20 13:53:22;;;;;;;10.87;2.60;;;7.90;99.90;;;;;;5010714;28;20193;-68
2022/01/20 13:55:48;;;;;;;7.83;2.40;;;7.90;99.90;;;;;;5010477;28;20167;-68
2022/01/20 13:58:25;;;;;;;11.77;2.37;;;7.90;99.90;;;;;;5010638;28;20187;-69
2022/01/20 14:00:52;;;;;;;7.03;1.93;;;7.90;99.90;;;;;;5011191;28;20178;-68
2022/01/20 14:03:18;;;;;;;7.80;1.77;;;7.60;99.90;;;;;;5010256;28;20365;-69
2022/01/20 14:05:44;;;;;;;6.60;1.90;;;7.10;99.90;;;;;;5009890;28;20239;-69
2022/01/20 14:08:11;;;;;;;5.93;1.70;;;6.80;99.90;;;;;;5010953;28;20181;-68
2022/01/20 14:10:37;;;;;;;5.63;1.67;;;6.60;99.90;;;;;;5010745;28;20272;-69
2022/01/20 14:13:03;;;;;;;5.83;2.23;;;6.40;99.90;;;;;;5010030;28;20205;-70